CheckWX is a tool to help pilots better visualize weather data.  It is not intended as a substitute for an official pre-flight weather briefing.

02:48:23 UTC

KAUW TAF
Wausau Downtown Airport
Wausau, Wisconsin, USA
KAUW 202343Z 2100/2124 15005KT P6SM SCT025 FM210600 15005KT 5SM BR SCT004 BKN020 WS020/22035KT FM210900 14006KT 3SM BR BKN007 FM211600 17010G19KT P6SM -SHRA OVC016 TEMPO 2116/2119 2SM +TSRA OVC025CB FM212000 19012G23KT 5SM -SHRA OVC020

Sep-21@
00:00 UTC

Sep-21 @ 00:00 UTC

Sep-21@
06:00 UTC

Sep-21 @ 06:00 UTC

KAUW 202343Z 2100/2124 15005KT P6SM SCT025
Wind
  • 150° at 5 KTS
Cloud Levels
  • Scattered at 2,500' AGL

Sep-21@
06:00 UTC

Sep-21 @ 06:00 UTC

Sep-21@
09:00 UTC

Sep-21 @ 09:00 UTC

FM210600 15005KT 5SM BR SCT004 BKN020 WS020/22035KT

From

From Standard forecast or significant change

Wind
  • 150° at 5 KTS
Conditions
Mist
Cloud Levels
  • Scattered at 400' AGL
  • Broken at 2,000' AGL

Sep-21@
09:00 UTC

Sep-21 @ 09:00 UTC

Sep-21@
16:00 UTC

Sep-21 @ 16:00 UTC

FM210900 14006KT 3SM BR BKN007

From

From Standard forecast or significant change

Wind
  • 140° at 6 KTS
Conditions
Mist
Cloud Levels
  • Broken at 700' AGL

Sep-21@
16:00 UTC

Sep-21 @ 16:00 UTC

Sep-21@
19:00 UTC

Sep-21 @ 19:00 UTC

TEMPO 2116/2119 2SM +TSRA OVC025CB

Temporary

Temporary Changes expected for less than half the time period

Conditions
Heavy Thunderstorm, Heavy Rain
Cloud Levels
  • Overcast at 2,500' AGL

Sep-21@
16:00 UTC

Sep-21 @ 16:00 UTC

Sep-21@
20:00 UTC

Sep-21 @ 20:00 UTC

FM211600 17010G19KT P6SM -SHRA OVC016

From

From Standard forecast or significant change

Wind
  • 170° at 10 KTS
  • {Gusting to 19 KTS
Conditions
Light Rain
Cloud Levels
  • Overcast at 1,600' AGL

Sep-21@
20:00 UTC

Sep-21 @ 20:00 UTC

Sep-22@
00:00 UTC

Sep-22 @ 00:00 UTC

FM212000 19012G23KT 5SM -SHRA OVC020

From

From Standard forecast or significant change

Wind
  • 190° at 12 KTS
  • {Gusting to 23 KTS
Conditions
Light Rain
Cloud Levels
  • Overcast at 2,000' AGL